Time;durP1;ratioP1;P1;durP2;ratioP2;P2;SDS_P1;SDS_P2;PMS_P1;PMS_P2;Temp;Humidity;BMP_temperature;BMP_pressure;BME280_temperature;BME280_humidity;BME280_pressure;Samples;Min_cycle;Max_cycle;Signal;HPM_P1;HPM_P2
2023/10/10 00:00:49;;;;;;;15.30;4.97;;;12.60;98.00;;;;;;5014730;28;20451;-65
2023/10/10 00:03:18;;;;;;;13.27;5.10;;;12.60;98.00;;;;;;5014123;28;20454;-66
2023/10/10 00:05:58;;;;;;;13.33;4.87;;;12.60;98.00;;;;;;5014109;28;20486;-66
2023/10/10 00:08:30;;;;;;;13.80;4.50;;;12.60;98.00;;;;;;5014187;28;20463;-66
2023/10/10 00:11:06;;;;;;;13.37;5.20;;;12.60;98.00;;;;;;5014064;28;20458;-65
2023/10/10 00:13:42;;;;;;;12.23;5.03;;;12.60;98.00;;;;;;5013996;28;20453;-66
2023/10/10 00:16:11;;;;;;;12.20;4.87;;;12.60;98.00;;;;;;5013880;28;20532;-66
2023/10/10 00:18:43;;;;;;;12.10;4.53;;;12.50;98.00;;;;;;5014216;28;20490;-67
2023/10/10 00:21:22;;;;;;;9.10;4.20;;;12.40;98.00;;;;;;5012747;28;20534;-65
2023/10/10 00:23:50;;;;;;;11.60;4.50;;;12.40;98.00;;;;;;5013867;28;20492;-66
2023/10/10 00:26:21;;;;;;;13.37;4.47;;;12.30;98.00;;;;;;5013671;28;20482;-66
2023/10/10 00:28:54;;;;;;;15.83;5.00;;;12.30;98.00;;;;;;5012542;28;20996;-67
2023/10/10 00:31:22;;;;;;;11.27;4.53;;;12.20;98.00;;;;;;5013673;28;20455;-66
2023/10/10 00:33:51;;;;;;;18.10;5.60;;;12.10;98.00;;;;;;5013673;28;20452;-66
2023/10/10 00:36:21;;;;;;;15.80;5.30;;;12.10;98.00;;;;;;5013851;28;20483;-65
2023/10/10 00:38:50;;;;;;;16.63;5.87;;;12.10;98.00;;;;;;5013605;28;20929;-66
2023/10/10 00:41:17;;;;;;;14.23;4.50;;;12.20;98.00;;;;;;5013550;28;20811;-66
2023/10/10 00:43:44;;;;;;;14.17;5.20;;;12.30;98.00;;;;;;5013552;28;20483;-66
2023/10/10 00:46:12;;;;;;;15.87;4.40;;;12.10;98.00;;;;;;5013413;28;20519;-67
2023/10/10 00:48:44;;;;;;;14.80;4.70;;;12.20;98.00;;;;;;5013516;28;20484;-66
2023/10/10 00:51:20;;;;;;;16.53;5.33;;;12.20;98.00;;;;;;5013486;28;20459;-66
2023/10/10 00:54:08;;;;;;;13.90;4.20;;;12.10;98.00;;;;;;5012296;28;20482;-66
2023/10/10 00:56:36;;;;;;;11.67;4.90;;;12.00;98.00;;;;;;5012339;28;20456;-66
2023/10/10 00:59:06;;;;;;;15.47;4.80;;;12.00;98.00;;;;;;5013228;28;20489;-66
2023/10/10 01:01:35;;;;;;;17.23;5.47;;;12.10;98.00;;;;;;5013398;28;20473;-66
2023/10/10 01:04:05;;;;;;;12.20;5.00;;;12.10;98.00;;;;;;5013260;28;20455;-65
2023/10/10 01:06:39;;;;;;;14.10;5.10;;;12.10;98.00;;;;;;5011522;28;20491;-66
2023/10/10 01:09:20;;;;;;;16.03;4.80;;;12.10;98.00;;;;;;5013097;28;20485;-66
2023/10/10 01:11:48;;;;;;;9.40;4.20;;;12.20;98.00;;;;;;5012001;28;20462;-66
2023/10/10 01:14:18;;;;;;;11.60;4.50;;;12.30;98.00;;;;;;5012861;28;20454;-66
2023/10/10 01:16:47;;;;;;;13.70;4.53;;;12.20;98.00;;;;;;5013028;28;20447;-66
2023/10/10 01:19:18;;;;;;;9.60;4.30;;;12.20;98.00;;;;;;5012853;28;20939;-66
2023/10/10 01:21:57;;;;;;;17.17;5.37;;;12.20;98.00;;;;;;5013194;28;20452;-66
2023/10/10 01:24:24;;;;;;;20.23;4.30;;;12.00;98.00;;;;;;5013018;28;20462;-66
2023/10/10 01:26:53;;;;;;;16.70;4.87;;;11.90;98.00;;;;;;5011498;28;20490;-66
2023/10/10 01:29:25;;;;;;;10.13;4.37;;;11.80;98.00;;;;;;5011276;28;20455;-66
2023/10/10 01:31:58;;;;;;;11.40;3.83;;;11.90;98.00;;;;;;5012031;28;20462;-67
2023/10/10 01:34:39;;;;;;;7.20;4.13;;;12.00;98.00;;;;;;5013001;28;20964;-66
2023/10/10 01:37:14;;;;;;;11.87;4.67;;;11.90;98.00;;;;;;5012830;28;20463;-66
2023/10/10 01:40:00;;;;;;;10.77;4.63;;;11.80;98.00;;;;;;5012854;28;20488;-66
2023/10/10 01:42:37;;;;;;;12.60;4.90;;;11.70;98.00;;;;;;5012642;28;20928;-66
2023/10/10 01:45:07;;;;;;;10.23;4.70;;;11.70;98.00;;;;;;5012300;28;20457;-66
2023/10/10 01:47:35;;;;;;;12.30;4.67;;;11.60;98.00;;;;;;5012475;28;20515;-66
2023/10/10 01:50:07;;;;;;;17.20;5.53;;;11.60;98.00;;;;;;5012480;28;20484;-67
2023/10/10 01:52:37;;;;;;;10.57;4.83;;;11.60;98.00;;;;;;5011835;28;20548;-66
2023/10/10 01:55:06;;;;;;;12.17;4.50;;;11.60;98.00;;;;;;5012135;28;20490;-65
2023/10/10 01:57:33;;;;;;;18.20;5.00;;;11.50;98.00;;;;;;5012032;28;20546;-66
2023/10/10 02:00:17;;;;;;;14.50;5.60;;;11.40;98.00;;;;;;5012237;28;20454;-66
2023/10/10 02:02:49;;;;;;;15.50;4.90;;;11.40;98.00;;;;;;5011185;28;20461;-66
2023/10/10 02:05:29;;;;;;;13.73;5.30;;;11.40;98.00;;;;;;5012408;28;20441;-66
2023/10/10 02:07:58;;;;;;;15.80;4.80;;;11.30;98.00;;;;;;5012057;28;21092;-65
2023/10/10 02:10:29;;;;;;;14.07;4.73;;;11.40;98.00;;;;;;5012312;28;20504;-65
2023/10/10 02:13:00;;;;;;;7.97;4.50;;;11.40;98.00;;;;;;5012144;28;20460;-66
2023/10/10 02:15:32;;;;;;;10.87;4.70;;;11.40;98.00;;;;;;5011958;28;20533;-65
2023/10/10 02:18:04;;;;;;;11.93;4.23;;;11.40;98.00;;;;;;5011904;28;20816;-66
2023/10/10 02:20:49;;;;;;;10.80;4.67;;;11.40;98.00;;;;;;5011842;28;20455;-66
2023/10/10 02:23:34;;;;;;;14.87;4.20;;;11.40;98.00;;;;;;5011892;28;20447;-66
2023/10/10 02:26:14;;;;;;;12.00;5.00;;;11.30;98.00;;;;;;5010915;28;20527;-66
2023/10/10 02:28:47;;;;;;;6.20;3.77;;;11.30;98.00;;;;;;5011829;28;20462;-66
2023/10/10 02:31:18;;;;;;;19.17;5.00;;;11.30;98.00;;;;;;5011923;28;21103;-65
2023/10/10 02:33:50;;;;;;;13.93;4.50;;;11.40;98.00;;;;;;5011863;28;20468;-66
2023/10/10 02:36:30;;;;;;;18.23;4.83;;;11.40;98.00;;;;;;5010668;28;20451;-65
2023/10/10 02:39:11;;;;;;;15.87;4.60;;;11.30;98.00;;;;;;5012019;28;20461;-65
2023/10/10 02:41:48;;;;;;;8.50;4.37;;;11.10;98.00;;;;;;5011949;28;20861;-67
2023/10/10 02:44:26;;;;;;;21.77;5.47;;;11.20;98.00;;;;;;5011805;28;20468;-67
2023/10/10 02:46:54;;;;;;;12.70;4.80;;;11.30;98.00;;;;;;5011743;28;20482;-66
2023/10/10 02:49:23;;;;;;;14.93;4.43;;;11.20;98.00;;;;;;5011756;28;20462;-65
2023/10/10 02:51:55;;;;;;;15.83;4.70;;;11.40;98.00;;;;;;5011894;28;20461;-66
2023/10/10 02:54:33;;;;;;;22.23;4.97;;;11.40;98.00;;;;;;4972812;28;20948;-68
2023/10/10 02:59:43;;;;;;;14.33;3.90;;;11.30;98.00;;;;;;4972565;28;20518;-65
2023/10/10 03:02:18;;;;;;;10.63;4.00;;;11.30;98.00;;;;;;4972816;28;20469;-65
2023/10/10 03:05:06;;;;;;;17.00;5.10;;;11.30;98.00;;;;;;4973764;28;20501;-66
2023/10/10 03:07:35;;;;;;;11.50;4.37;;;11.40;98.00;;;;;;4976205;28;21091;-66
2023/10/10 03:10:37;;;;;;;11.83;4.00;;;11.30;98.00;;;;;;4976569;28;21015;-66
2023/10/10 03:13:27;;;;;;;12.20;4.47;;;11.20;98.00;;;;;;4976641;28;20462;-65
2023/10/10 03:15:56;;;;;;;11.50;4.77;;;11.20;98.00;;;;;;4976465;28;20918;-67
2023/10/10 03:18:30;;;;;;;14.67;4.67;;;11.20;98.00;;;;;;4976036;28;20469;-65
2023/10/10 03:21:12;;;;;;;12.83;4.10;;;11.00;98.00;;;;;;4976360;28;20545;-66
2023/10/10 03:23:52;;;;;;;11.13;4.33;;;11.00;98.00;;;;;;4976101;28;20453;-66
2023/10/10 03:26:34;;;;;;;8.60;3.80;;;11.10;98.00;;;;;;4975898;28;20470;-66
2023/10/10 03:29:04;;;;;;;12.77;4.87;;;11.20;98.00;;;;;;4976011;28;20517;-66
2023/10/10 03:31:41;;;;;;;12.40;4.30;;;11.20;98.00;;;;;;4975944;28;20466;-66
2023/10/10 03:34:19;;;;;;;16.60;5.10;;;11.20;98.00;;;;;;4974515;28;20455;-66
2023/10/10 03:37:08;;;;;;;16.77;4.87;;;11.30;98.00;;;;;;4975770;28;20839;-66
2023/10/10 03:39:49;;;;;;;13.17;4.33;;;11.10;98.00;;;;;;4974694;28;20847;-66
2023/10/10 05:24:17;;;;;;;12.10;3.53;;;10.50;98.00;;;;;;4973962;28;20830;-67
2023/10/10 05:26:47;;;;;;;12.87;4.43;;;10.40;98.00;;;;;;4973777;28;20469;-67
2023/10/10 05:29:14;;;;;;;19.43;5.73;;;10.40;98.00;;;;;;4973471;28;20500;-66
2023/10/10 05:31:44;;;;;;;14.83;3.57;;;10.30;98.00;;;;;;4974104;28;20461;-66
2023/10/10 05:34:14;;;;;;;9.07;3.83;;;10.30;98.00;;;;;;4972721;28;20462;-67
2023/10/10 05:36:44;;;;;;;15.47;4.17;;;10.30;98.00;;;;;;4972782;28;20540;-67
2023/10/10 05:39:17;;;;;;;21.83;4.97;;;10.40;98.00;;;;;;4973848;28;20601;-67
2023/10/10 05:41:47;;;;;;;7.73;3.67;;;10.20;98.00;;;;;;4973936;28;20945;-68
2023/10/10 05:44:16;;;;;;;10.97;3.70;;;10.10;98.00;;;;;;4972284;28;20559;-66
2023/10/10 05:46:43;;;;;;;8.50;3.90;;;10.00;98.00;;;;;;4973670;28;20481;-66
2023/10/10 05:49:10;;;;;;;8.77;4.13;;;10.00;98.00;;;;;;4973602;28;20486;-66
2023/10/10 05:51:37;;;;;;;15.93;4.40;;;10.10;98.00;;;;;;4973691;28;20460;-66
2023/10/10 05:54:07;;;;;;;10.20;4.17;;;10.10;98.00;;;;;;4973467;28;20457;-66
2023/10/10 05:56:34;;;;;;;13.23;4.10;;;10.20;98.00;;;;;;4973622;28;20509;-66
2023/10/10 05:59:02;;;;;;;13.90;4.33;;;10.20;98.00;;;;;;4973533;28;20449;-63
2023/10/10 06:01:30;;;;;;;12.83;4.40;;;10.30;98.00;;;;;;4971847;28;20550;-62
2023/10/10 06:03:58;;;;;;;12.87;5.00;;;10.30;98.00;;;;;;4972757;28;21011;-62
2023/10/10 06:06:27;;;;;;;17.13;4.80;;;10.30;98.00;;;;;;4972991;28;20819;-62
2023/10/10 06:09:00;;;;;;;13.83;4.70;;;10.40;98.00;;;;;;4972627;28;20572;-62
2023/10/10 06:11:29;;;;;;;11.77;4.27;;;10.60;98.00;;;;;;4973345;28;20519;-62
2023/10/10 06:13:57;;;;;;;14.40;4.17;;;10.40;98.00;;;;;;4973434;28;20517;-62
2023/10/10 06:16:25;;;;;;;13.67;5.50;;;10.50;98.00;;;;;;4973477;28;20461;-62
2023/10/10 06:18:52;;;;;;;12.03;5.27;;;10.50;98.00;;;;;;4973425;28;20460;-62
2023/10/10 06:21:20;;;;;;;10.30;4.87;;;10.50;98.00;;;;;;4973535;28;20850;-62
2023/10/10 06:23:49;;;;;;;18.03;5.80;;;10.50;98.00;;;;;;4973538;28;20457;-62
2023/10/10 06:26:21;;;;;;;16.13;5.27;;;10.70;98.00;;;;;;4972296;28;20982;-62
2023/10/10 06:28:53;;;;;;;10.47;4.40;;;10.90;98.00;;;;;;4973521;28;20486;-62
2023/10/10 06:31:20;;;;;;;20.93;6.20;;;10.90;98.00;;;;;;4973557;28;20471;-62
2023/10/10 06:33:49;;;;;;;21.43;6.67;;;10.90;98.00;;;;;;4972243;28;20470;-62
2023/10/10 06:36:37;;;;;;;17.33;7.10;;;10.90;98.00;;;;;;4972224;28;20448;-62
2023/10/10 06:39:21;;;;;;;11.83;4.33;;;11.00;98.00;;;;;;4974312;28;20464;-62
2023/10/10 06:41:54;;;;;;;14.20;4.53;;;11.00;98.00;;;;;;4977205;28;20512;-62
2023/10/10 06:44:36;;;;;;;12.60;4.70;;;11.10;98.00;;;;;;4976649;28;20462;-63
2023/10/10 06:47:10;;;;;;;9.70;4.10;;;11.20;98.00;;;;;;4976856;28;20826;-62
2023/10/10 06:49:53;;;;;;;20.20;5.27;;;11.30;98.00;;;;;;4977215;28;20454;-62
2023/10/10 06:52:23;;;;;;;17.77;4.83;;;11.40;98.00;;;;;;4977020;28;20457;-62
2023/10/10 06:54:54;;;;;;;14.03;4.57;;;11.60;98.00;;;;;;4976768;28;20459;-62
2023/10/10 06:57:35;;;;;;;11.93;4.50;;;11.60;98.00;;;;;;4976677;28;20514;-62
2023/10/10 07:00:17;;;;;;;13.57;4.60;;;11.50;98.00;;;;;;4989460;28;20485;-62
2023/10/10 07:02:48;;;;;;;14.10;4.43;;;11.60;98.00;;;;;;4996102;28;20460;-62
2023/10/10 07:05:18;;;;;;;17.93;7.30;;;11.60;98.00;;;;;;4995976;28;20461;-62
2023/10/10 07:07:46;;;;;;;20.80;5.90;;;11.70;98.00;;;;;;4995990;28;20823;-62
2023/10/10 07:10:24;;;;;;;14.03;4.70;;;11.80;98.00;;;;;;4995623;28;20799;-62
2023/10/10 07:12:54;;;;;;;13.10;4.60;;;11.90;98.00;;;;;;4995991;28;20503;-62
2023/10/10 07:15:27;;;;;;;12.50;5.40;;;12.00;98.00;;;;;;4995718;28;20453;-62
2023/10/10 07:18:08;;;;;;;11.60;4.50;;;12.00;98.00;;;;;;4995943;28;20463;-63
2023/10/10 07:23:20;;;;;;;13.57;4.43;;;12.10;98.00;;;;;;4995907;28;20453;-62
2023/10/10 07:25:58;;;;;;;9.47;4.20;;;12.20;98.00;;;;;;4993439;28;20457;-63
2023/10/10 07:28:28;;;;;;;11.90;4.73;;;12.30;98.00;;;;;;4992604;28;20499;-63
2023/10/10 07:30:59;;;;;;;15.43;5.17;;;12.50;98.00;;;;;;4992861;28;20462;-61
2023/10/10 07:33:40;;;;;;;10.10;4.50;;;12.70;98.00;;;;;;4988402;28;21438;-61
2023/10/10 07:36:12;;;;;;;10.17;4.40;;;12.80;98.00;;;;;;4992931;28;20549;-61
2023/10/10 07:38:40;;;;;;;13.90;4.60;;;12.70;98.00;;;;;;4993384;28;20941;-61
2023/10/10 07:41:08;;;;;;;23.17;5.20;;;12.80;98.00;;;;;;4992424;28;20466;-61
2023/10/10 07:43:35;;;;;;;9.83;5.53;;;12.90;98.00;;;;;;4991932;28;20471;-61
2023/10/10 07:46:18;;;;;;;12.67;4.53;;;13.00;98.00;;;;;;4987788;28;20551;-61
2023/10/10 07:48:46;;;;;;;12.90;5.00;;;13.00;98.00;;;;;;4992508;28;20503;-62
2023/10/10 07:51:27;;;;;;;17.03;5.13;;;13.30;98.00;;;;;;4987949;28;20936;-61
2023/10/10 07:54:01;;;;;;;12.43;4.67;;;13.30;98.00;;;;;;4991862;28;20524;-61
2023/10/10 07:56:31;;;;;;;16.60;5.83;;;13.30;98.00;;;;;;4989838;28;20537;-62
2023/10/10 07:58:58;;;;;;;16.77;5.70;;;13.40;98.00;;;;;;4990986;28;20513;-61
2023/10/10 08:01:27;;;;;;;13.40;5.20;;;13.50;98.00;;;;;;4992147;28;20452;-62
2023/10/10 08:03:54;;;;;;;16.67;5.27;;;13.60;98.00;;;;;;4991153;28;20991;-61
2023/10/10 08:06:22;;;;;;;8.97;5.10;;;13.60;98.00;;;;;;4992849;28;20466;-61
2023/10/10 08:09:09;;;;;;;20.30;5.20;;;13.70;98.00;;;;;;4991898;28;20572;-61
2023/10/10 08:11:37;;;;;;;15.23;5.60;;;13.90;98.00;;;;;;4992500;28;20455;-62
2023/10/10 08:14:08;;;;;;;11.83;4.97;;;14.10;98.00;;;;;;4994016;28;20468;-61
2023/10/10 08:16:38;;;;;;;17.83;5.10;;;14.20;98.00;;;;;;4995060;28;20486;-61
2023/10/10 08:19:08;;;;;;;11.13;4.90;;;14.30;98.00;;;;;;4993526;28;20977;-61
2023/10/10 08:21:38;;;;;;;10.90;5.07;;;14.40;98.00;;;;;;4994935;28;20834;-62
2023/10/10 08:24:07;;;;;;;18.90;5.60;;;14.40;98.00;;;;;;4994426;28;20465;-59
2023/10/10 08:26:40;;;;;;;14.30;5.40;;;14.50;98.00;;;;;;4994539;28;20464;-62
2023/10/10 08:29:09;;;;;;;12.47;4.90;;;14.50;98.00;;;;;;4994667;28;20520;-61
2023/10/10 08:31:38;;;;;;;13.97;5.87;;;14.50;98.00;;;;;;4994531;28;20462;-61
2023/10/10 08:34:08;;;;;;;16.83;6.30;;;14.50;98.00;;;;;;4994001;28;20463;-62
2023/10/10 08:36:37;;;;;;;13.90;5.70;;;14.70;98.00;;;;;;4993900;28;20873;-61
2023/10/10 08:39:17;;;;;;;14.37;4.80;;;14.80;98.00;;;;;;4991923;28;20791;-61
2023/10/10 08:41:45;;;;;;;14.63;5.50;;;14.90;98.00;;;;;;4990755;28;20538;-62
2023/10/10 08:44:14;;;;;;;13.37;5.10;;;15.00;98.00;;;;;;4993514;28;20464;-61
2023/10/10 08:46:46;;;;;;;10.63;4.63;;;15.30;98.00;;;;;;4994129;28;20845;-61
2023/10/10 08:49:14;;;;;;;10.87;4.90;;;15.40;98.00;;;;;;4993976;28;20488;-61
2023/10/10 08:51:42;;;;;;;18.13;5.50;;;15.60;98.00;;;;;;4993993;28;20472;-61
2023/10/10 08:54:12;;;;;;;12.93;5.10;;;15.70;98.00;;;;;;4993731;28;20456;-62
2023/10/10 08:56:42;;;;;;;15.27;5.43;;;15.90;98.00;;;;;;4993778;28;20452;-61
2023/10/10 08:59:11;;;;;;;15.53;5.80;;;16.10;98.00;;;;;;4993199;28;20918;-62
2023/10/10 09:01:39;;;;;;;14.67;6.03;;;16.30;98.00;;;;;;4991807;28;20547;-61
2023/10/10 09:04:16;;;;;;;11.03;4.40;;;16.40;98.00;;;;;;4992475;28;20511;-62
2023/10/10 09:06:45;;;;;;;8.87;4.87;;;16.60;98.00;;;;;;4993146;28;20535;-61
2023/10/10 09:11:58;;;;;;;9.47;4.30;;;16.80;98.00;;;;;;4993240;28;20451;-61
2023/10/10 09:14:40;;;;;;;14.23;5.23;;;16.80;98.00;;;;;;4993145;28;20460;-61
2023/10/10 09:17:09;;;;;;;15.63;5.37;;;17.00;98.00;;;;;;4992533;28;20865;-62
2023/10/10 09:19:44;;;;;;;14.47;4.83;;;17.20;98.00;;;;;;4992845;28;20452;-62
2023/10/10 09:22:25;;;;;;;15.67;5.17;;;17.40;98.00;;;;;;4992832;28;21189;-61
2023/10/10 09:24:55;;;;;;;13.23;4.90;;;17.60;98.00;;;;;;4993327;28;20823;-61
2023/10/10 09:27:27;;;;;;;16.73;5.43;;;17.80;98.00;;;;;;4993233;28;20539;-61
2023/10/10 09:29:57;;;;;;;14.37;4.87;;;18.00;98.00;;;;;;4993172;28;20495;-61
2023/10/10 09:32:36;;;;;;;15.77;4.63;;;18.10;98.00;;;;;;4993135;28;20456;-62
2023/10/10 09:35:09;;;;;;;21.77;4.63;;;18.20;98.00;;;;;;4992052;28;21018;-61
2023/10/10 09:37:42;;;;;;;14.60;5.53;;;18.40;98.00;;;;;;4993387;28;20809;-62
2023/10/10 09:40:19;;;;;;;12.43;4.40;;;18.50;98.00;;;;;;4992883;28;20523;-62
2023/10/10 09:43:11;;;;;;;16.93;4.40;;;18.60;98.00;;;;;;4993731;28;20498;-62
2023/10/10 09:46:10;;;;;;;15.33;5.03;;;18.70;98.00;;;;;;4993159;28;20468;-62
2023/10/10 09:54:25;;;;;;;18.37;4.80;;;19.40;98.00;;;;;;4993164;28;20571;-62
2023/10/10 09:56:56;;;;;;;13.63;4.67;;;19.70;98.00;;;;;;4993272;28;20451;-62
2023/10/10 09:59:28;;;;;;;20.67;4.53;;;19.70;98.00;;;;;;4992482;28;20539;-63
2023/10/10 10:02:07;;;;;;;17.67;4.80;;;19.90;98.00;;;;;;4994795;28;20455;-64
2023/10/10 10:04:44;;;;;;;11.83;3.97;;;20.10;98.00;;;;;;4991207;28;20494;-64
2023/10/10 10:12:55;;;;;;;8.80;3.90;;;20.60;98.00;;;;;;5009767;28;20503;-63
2023/10/10 10:15:48;;;;;;;12.63;4.10;;;20.70;98.00;;;;;;5011659;28;20459;-63
2023/10/10 10:18:26;;;;;;;7.97;4.00;;;20.80;98.00;;;;;;5011229;28;20450;-63
2023/10/10 10:21:16;;;;;;;8.87;3.80;;;21.00;98.00;;;;;;5011287;28;20474;-64
2023/10/10 10:23:47;;;;;;;7.77;3.93;;;21.30;98.00;;;;;;5011140;28;20777;-62
2023/10/10 10:26:31;;;;;;;13.40;4.10;;;21.50;98.00;;;;;;5011987;28;21072;-63
2023/10/10 10:29:07;;;;;;;10.97;4.13;;;21.80;98.00;;;;;;5011747;28;20566;-64
2023/10/10 10:31:37;;;;;;;12.73;4.00;;;22.00;98.00;;;;;;5012091;28;20885;-63
2023/10/10 10:34:10;;;;;;;8.33;3.70;;;22.20;98.00;;;;;;5010787;28;20490;-62
2023/10/10 10:36:42;;;;;;;13.70;4.53;;;22.30;98.00;;;;;;5011967;28;20463;-62
2023/10/10 10:39:25;;;;;;;13.90;4.50;;;22.40;98.00;;;;;;5010827;28;20448;-63
2023/10/10 10:41:53;;;;;;;12.33;4.10;;;22.40;98.00;;;;;;5012027;28;20826;-63
2023/10/10 10:44:46;;;;;;;12.33;4.53;;;22.50;98.00;;;;;;5009390;28;20471;-63
2023/10/10 10:47:49;;;;;;;9.67;3.80;;;22.70;98.00;;;;;;5012005;28;20452;-62
2023/10/10 10:50:42;;;;;;;9.77;4.13;;;22.70;98.00;;;;;;5003103;28;20537;-63
2023/10/10 10:53:32;;;;;;;9.50;3.93;;;22.80;98.00;;;;;;5011933;28;20451;-63
2023/10/10 10:59:11;;;;;;;11.70;4.13;;;23.10;98.00;;;;;;5011504;28;20489;-62
2023/10/10 11:01:51;;;;;;;10.23;4.43;;;23.20;98.00;;;;;;5011123;28;20513;-64
2023/10/10 11:04:39;;;;;;;12.60;4.33;;;23.30;98.00;;;;;;5010983;28;20502;-64
2023/10/10 11:07:07;;;;;;;15.60;4.27;;;23.20;98.00;;;;;;5010930;28;20460;-64
2023/10/10 11:09:42;;;;;;;9.80;4.10;;;23.30;98.00;;;;;;5010926;28;20578;-63
2023/10/10 11:12:12;;;;;;;7.67;4.07;;;23.50;98.00;;;;;;5010984;28;21052;-63
2023/10/10 11:14:45;;;;;;;10.40;4.07;;;23.70;98.00;;;;;;5011032;28;20459;-62
2023/10/10 11:17:17;;;;;;;9.63;3.67;;;24.00;98.00;;;;;;5011011;28;20550;-63
2023/10/10 11:19:48;;;;;;;13.97;4.60;;;24.10;98.00;;;;;;5011010;28;20460;-63
2023/10/10 11:22:38;;;;;;;8.70;4.33;;;24.30;98.00;;;;;;4993959;28;20455;-64
2023/10/10 11:25:11;;;;;;;10.10;3.93;;;24.50;98.00;;;;;;5010851;28;20506;-64
2023/10/10 11:27:44;;;;;;;10.40;4.00;;;24.60;98.00;;;;;;5013642;28;20454;-63
2023/10/10 11:30:12;;;;;;;8.43;3.70;;;24.40;98.00;;;;;;5014679;28;20863;-63
2023/10/10 11:32:47;;;;;;;11.27;4.23;;;24.60;98.00;;;;;;5015489;28;20459;-63
2023/10/10 11:35:25;;;;;;;16.53;4.73;;;24.80;98.00;;;;;;5015419;28;21136;-66
2023/10/10 11:38:00;;;;;;;6.83;3.83;;;25.10;96.70;;;;;;5015110;28;20463;-63
2023/10/10 11:40:32;;;;;;;15.90;4.00;;;25.40;98.00;;;;;;5013947;28;20461;-63
2023/10/10 11:43:03;;;;;;;11.20;4.30;;;25.70;96.20;;;;;;5015141;28;20456;-63
2023/10/10 11:45:31;;;;;;;12.33;3.77;;;25.90;94.90;;;;;;5013788;28;20487;-63
2023/10/10 11:48:05;;;;;;;16.07;4.33;;;26.00;94.10;;;;;;5014943;28;20464;-63
2023/10/10 11:50:44;;;;;;;11.30;4.30;;;25.90;92.10;;;;;;5014718;28;20491;-63
2023/10/10 11:53:14;;;;;;;15.00;4.77;;;26.00;91.30;;;;;;5014909;28;20526;-62
2023/10/10 11:55:42;;;;;;;10.03;4.00;;;26.10;91.20;;;;;;5013233;28;20941;-63
2023/10/10 11:58:16;;;;;;;9.10;4.13;;;26.00;90.20;;;;;;5014117;28;20455;-65
2023/10/10 12:00:43;;;;;;;11.47;4.40;;;25.80;90.70;;;;;;5014040;28;20443;-64
2023/10/10 12:03:11;;;;;;;9.67;3.93;;;25.80;93.20;;;;;;5013836;28;20454;-64
2023/10/10 12:05:48;;;;;;;10.13;4.83;;;25.90;91.90;;;;;;5014048;28;20455;-65
2023/10/10 12:08:22;;;;;;;11.13;4.27;;;25.70;91.60;;;;;;5013614;28;20444;-66
2023/10/10 12:10:52;;;;;;;9.57;4.17;;;25.90;94.90;;;;;;5014325;28;21003;-68
2023/10/10 12:13:33;;;;;;;7.90;3.83;;;26.20;97.30;;;;;;5014406;28;20451;-67
2023/10/10 12:16:01;;;;;;;9.07;3.80;;;26.40;95.40;;;;;;5014482;28;20478;-68
2023/10/10 12:18:31;;;;;;;12.57;4.23;;;26.60;93.80;;;;;;5014402;28;20462;-68
2023/10/10 12:20:59;;;;;;;7.43;3.80;;;26.80;92.80;;;;;;5013383;28;20855;-68
2023/10/10 12:23:26;;;;;;;9.23;3.63;;;26.90;91.60;;;;;;5014364;28;20455;-68
2023/10/10 12:25:54;;;;;;;7.60;3.97;;;27.00;89.70;;;;;;5014373;28;20456;-67
2023/10/10 12:28:22;;;;;;;11.97;3.90;;;27.20;88.00;;;;;;5014154;28;20452;-68
2023/10/10 12:30:49;;;;;;;11.27;4.17;;;27.30;88.30;;;;;;5013936;28;20479;-68
2023/10/10 12:33:17;;;;;;;17.40;4.13;;;27.40;89.50;;;;;;5014167;28;20452;-68
2023/10/10 12:35:47;;;;;;;12.27;4.17;;;27.40;86.60;;;;;;5014145;28;20546;-67
2023/10/10 12:40:56;;;;;;;15.40;4.57;;;27.60;86.80;;;;;;5013885;28;20630;-65
2023/10/10 12:43:25;;;;;;;8.57;4.10;;;27.60;84.60;;;;;;5014023;28;20523;-65
2023/10/10 12:45:54;;;;;;;8.60;4.00;;;27.40;84.90;;;;;;5014025;28;20837;-64
2023/10/10 12:48:21;;;;;;;17.23;4.70;;;27.40;86.40;;;;;;5014008;28;20803;-65
2023/10/10 12:50:50;;;;;;;11.73;4.73;;;27.30;84.70;;;;;;5012632;28;20487;-65
2023/10/10 12:53:19;;;;;;;12.80;4.00;;;27.00;84.60;;;;;;5013909;28;20462;-64
2023/10/10 12:55:49;;;;;;;14.90;4.53;;;27.00;85.50;;;;;;5013722;28;21024;-64
2023/10/10 12:58:19;;;;;;;12.10;4.40;;;26.90;86.60;;;;;;5013713;28;20931;-65
2023/10/10 13:00:51;;;;;;;14.87;4.73;;;26.90;83.80;;;;;;5013809;28;20452;-67
2023/10/10 13:03:20;;;;;;;15.93;4.30;;;27.00;82.90;;;;;;5013685;28;20452;-65
2023/10/10 13:05:48;;;;;;;12.37;4.23;;;27.10;81.90;;;;;;5013872;28;20458;-65
2023/10/10 13:08:17;;;;;;;8.33;3.70;;;27.20;84.70;;;;;;5013881;28;20459;-64
2023/10/10 13:10:45;;;;;;;7.87;3.63;;;27.40;88.90;;;;;;5013031;28;20494;-65
2023/10/10 13:13:15;;;;;;;10.03;4.37;;;27.50;89.30;;;;;;5013636;28;20458;-65
2023/10/10 13:15:50;;;;;;;9.80;3.33;;;27.70;90.80;;;;;;5013207;28;20466;-65
2023/10/10 13:18:22;;;;;;;13.47;4.83;;;27.70;88.90;;;;;;5013160;28;20454;-65
2023/10/10 13:20:50;;;;;;;12.27;4.90;;;27.90;80.60;;;;;;5012586;28;20463;-66
2023/10/10 13:23:18;;;;;;;17.67;4.93;;;27.90;81.40;;;;;;5013149;28;20930;-64
2023/10/10 13:25:48;;;;;;;10.53;4.33;;;27.90;74.70;;;;;;5012952;28;20996;-66
2023/10/10 13:28:20;;;;;;;12.23;4.60;;;27.90;76.20;;;;;;5012854;28;20448;-65
2023/10/10 13:30:48;;;;;;;11.97;4.63;;;27.90;80.00;;;;;;5012956;28;20483;-65
2023/10/10 13:33:15;;;;;;;10.60;4.50;;;27.90;82.60;;;;;;5013108;28;20639;-65
2023/10/10 13:35:45;;;;;;;11.57;4.90;;;27.90;78.40;;;;;;5012874;28;20509;-65
2023/10/10 13:38:13;;;;;;;12.03;4.60;;;27.80;72.20;;;;;;5012784;28;20883;-65
2023/10/10 13:40:45;;;;;;;16.00;4.97;;;27.80;73.20;;;;;;5012733;28;20535;-65
2023/10/10 13:43:16;;;;;;;10.20;4.30;;;27.90;77.20;;;;;;5012814;28;20459;-63
2023/10/10 13:45:48;;;;;;;13.00;4.53;;;27.90;81.60;;;;;;5012705;28;20486;-65
2023/10/10 13:48:18;;;;;;;13.97;5.20;;;28.00;78.50;;;;;;5012330;28;20988;-65
2023/10/10 13:50:50;;;;;;;10.97;5.10;;;28.00;75.70;;;;;;5012643;28;20483;-64
2023/10/10 13:53:20;;;;;;;13.47;4.73;;;28.20;75.10;;;;;;5011839;28;20509;-66
2023/10/10 13:55:48;;;;;;;9.13;4.47;;;28.10;73.10;;;;;;5012614;28;20455;-66
2023/10/10 13:58:16;;;;;;;15.03;5.43;;;28.10;73.40;;;;;;5012166;28;21142;-67
2023/10/10 14:00:52;;;;;;;11.00;4.43;;;27.80;76.50;;;;;;5011850;28;20455;-65
2023/10/10 14:03:28;;;;;;;14.03;5.37;;;27.60;75.50;;;;;;5011941;28;20451;-65
2023/10/10 14:06:03;;;;;;;11.20;4.93;;;27.70;80.00;;;;;;5011776;28;20459;-64
2023/10/10 14:08:31;;;;;;;12.07;4.90;;;27.60;82.70;;;;;;5011880;28;20464;-64
2023/10/10 14:11:00;;;;;;;11.20;4.83;;;27.50;81.20;;;;;;5012213;28;21008;-62
2023/10/10 14:13:28;;;;;;;13.30;4.70;;;27.40;82.30;;;;;;5012432;28;20464;-62
2023/10/10 14:15:56;;;;;;;11.73;5.27;;;27.20;83.20;;;;;;5012431;28;20505;-62
2023/10/10 14:18:29;;;;;;;11.63;3.97;;;27.10;84.30;;;;;;5012469;28;20483;-62
2023/10/10 14:21:01;;;;;;;11.13;4.47;;;26.90;86.10;;;;;;5012577;28;20452;-62
2023/10/10 14:23:35;;;;;;;12.00;4.03;;;26.70;86.90;;;;;;5012491;28;20465;-64
2023/10/10 14:26:13;;;;;;;10.93;4.17;;;26.60;88.00;;;;;;5012361;28;20501;-65
2023/10/10 14:28:41;;;;;;;9.73;4.30;;;26.40;89.00;;;;;;5012538;28;20918;-64
2023/10/10 14:31:12;;;;;;;12.50;4.70;;;26.20;89.20;;;;;;5012307;28;20527;-64
2023/10/10 14:33:40;;;;;;;16.07;4.40;;;26.10;90.30;;;;;;5012458;28;20529;-64
2023/10/10 14:36:14;;;;;;;11.10;4.60;;;25.90;90.90;;;;;;5012520;28;20802;-64
2023/10/10 14:38:44;;;;;;;12.03;5.03;;;25.80;91.50;;;;;;5011378;28;20506;-64
2023/10/10 14:41:18;;;;;;;10.77;4.80;;;25.80;92.00;;;;;;5012596;28;20811;-66
2023/10/10 14:43:47;;;;;;;10.10;4.20;;;25.90;92.30;;;;;;5012399;28;20545;-65
2023/10/10 14:46:21;;;;;;;9.90;4.50;;;26.10;91.40;;;;;;5012095;28;20452;-62
2023/10/10 14:48:48;;;;;;;14.73;4.50;;;26.20;90.10;;;;;;5012452;28;20455;-62
2023/10/10 14:51:18;;;;;;;13.83;4.63;;;26.20;90.30;;;;;;5012364;28;20510;-62
2023/10/10 14:53:51;;;;;;;11.07;4.57;;;26.50;90.10;;;;;;5012427;28;20526;-63
2023/10/10 14:56:22;;;;;;;9.90;4.80;;;26.70;89.60;;;;;;5012082;28;20487;-63
2023/10/10 14:58:50;;;;;;;9.20;4.20;;;27.00;87.80;;;;;;5012291;28;20455;-62
2023/10/10 15:01:20;;;;;;;12.80;4.60;;;27.40;86.80;;;;;;5015213;28;20455;-62
2023/10/10 15:03:50;;;;;;;12.93;5.00;;;27.60;86.40;;;;;;5016062;28;20543;-62
2023/10/10 15:06:22;;;;;;;14.97;4.93;;;27.80;85.70;;;;;;5014769;28;20459;-63
2023/10/10 15:08:49;;;;;;;12.47;4.50;;;27.80;85.30;;;;;;5015679;28;20455;-62
2023/10/10 15:11:16;;;;;;;11.10;5.30;;;27.80;84.80;;;;;;5015381;28;20494;-63
2023/10/10 15:13:43;;;;;;;10.50;4.83;;;27.80;84.30;;;;;;5015711;28;20451;-62